メインページ
METAR-TAF:

METAR-TAF

空港 :

キングストン・ノーマン・ロジャース空港

キングストン, オンタリオ州, カナダ

緯度: 44-13N, 経度: 076-36W, 海抜: 93m

現時点の気象観測

当レポートは31分前の00:00(UTC)に作成
南西の風 10kt、から西/南西の間で変化する
気温 26°C
湿度 74%
気圧 1012 hPa
視程: 24.1km
高度7000ftの雲はほとんどない
高度11000ftの雲はほとんどない
高度25000ftの雲は散在している

METAR: CYGK 170000Z 22010KT 190V250 15SM FEW070 FEW110 SCT250 26/21 A2989 RMK AC1AC2CI1 AC TR SLP123 DENSITY ALT 1700FT

時間: 20:31 (00:31 UTC)

予報

当レポートは4時間53分前の19:38(UTC)に作成
予報は16日の 20時(UTC)から 17日の 03時(UTC)まで有効
の風 10kt、最大20ktの突風を伴う
視程: 10km
高度3000ftの千切れ雲あり
16日の 20時(UTC)から 17日の 03時(UTC)まで一時的に
視程: 10km
高度3000ftの千切れ雲あり
弱いにわか雨
確率 30%
16日の 21時(UTC)から 16日の 24時(UTC)まで
視程: 3.2km
高度3000ftの千切れ雲あり, 積乱雲.
激しい雷雨, 大雨, 靄

TAF: CYGK 161938Z 1620/1703 19010G20KT P6SM BKN030 TEMPO 1620/1703 P6SM -SHRA BKN030 PROB30 1621/1624 2SM +TSRA BR BKN030CB RMK NXT FCST WILL BE ISSUED AT 171145Z

4,000以上の空港の気象観測と天気予報(METAR報とTAF報)

利用可能な観測所は地図上に黄色い丸と赤い丸で示す。

丸の上にカーソルを重ねると観測所名を参照できる。

次にクリックすると気象観測と天気予報を参照できる。

マップの切り替え:黒色「×」印の緑ボタンをクリックして拡大、「-」印の緑ボタンをクリックして縮小、緑色の三角印をクリックして隣りの地図に切り替え


METAR-TAF: